Time;durP1;ratioP1;P1;durP2;ratioP2;P2;SDS_P1;SDS_P2;PMS_P1;PMS_P2;Temp;Humidity;BMP_temperature;BMP_pressure;BME280_temperature;BME280_humidity;BME280_pressure;Samples;Min_cycle;Max_cycle;Signal;HPM_P1;HPM_P2
2021/01/14 00:01:22;;;;;;;1.60;1.48;;;;;;;;;;5070999;28;20032;-69
2021/01/14 00:03:48;;;;;;;1.52;1.42;;;;;;;;;;5071450;28;20063;-69
2021/01/14 00:06:14;;;;;;;2.08;1.80;;;;;;;;;;5071625;28;20029;-69
2021/01/14 00:08:40;;;;;;;2.33;1.98;;;;;;;;;;5071052;28;20046;-69
2021/01/14 00:11:06;;;;;;;2.03;1.50;;;;;;;;;;5071138;28;20029;-69
2021/01/14 00:13:32;;;;;;;2.38;2.17;;;;;;;;;;5071151;28;20070;-68
2021/01/14 00:15:58;;;;;;;2.15;1.70;;;;;;;;;;5071342;28;20056;-68
2021/01/14 00:18:24;;;;;;;2.47;1.98;;;;;;;;;;5070274;28;20433;-68
2021/01/14 00:20:51;;;;;;;2.55;2.03;;;;;;;;;;5070636;28;20029;-68
2021/01/14 00:23:17;;;;;;;2.17;1.90;;;;;;;;;;5070826;28;20468;-67
2021/01/14 00:25:43;;;;;;;1.88;1.55;;;;;;;;;;5071167;28;20021;-68
2021/01/14 00:28:09;;;;;;;3.80;2.83;;;;;;;;;;5070951;28;20098;-68
2021/01/14 00:30:35;;;;;;;2.38;1.92;;;;;;;;;;5070737;28;20618;-68
2021/01/14 00:33:01;;;;;;;2.60;2.38;;;;;;;;;;5070755;28;20029;-68
2021/01/14 00:35:27;;;;;;;2.90;2.45;;;;;;;;;;5069895;28;20029;-68
2021/01/14 00:37:54;;;;;;;3.75;2.50;;;;;;;;;;5071416;28;20378;-68
2021/01/14 00:40:30;;;;;;;3.55;2.30;;;;;;;;;;5055780;28;20544;-68
2021/01/14 00:42:57;;;;;;;3.63;2.47;;;;;;;;;;5071217;28;20039;-68
2021/01/14 00:45:23;;;;;;;2.45;2.00;;;;;;;;;;5089646;28;20470;-68
2021/01/14 00:47:49;;;;;;;3.22;2.63;;;;;;;;;;5091787;28;20032;-68
2021/01/14 00:50:16;;;;;;;3.17;2.47;;;;;;;;;;5090881;28;20097;-67
2021/01/14 00:52:42;;;;;;;3.85;2.55;;;;;;;;;;5090356;28;20114;-68
2021/01/14 00:55:08;;;;;;;5.18;4.05;;;;;;;;;;5090925;28;20024;-69
2021/01/14 00:57:35;;;;;;;3.10;2.53;;;;;;;;;;5090659;28;20077;-68
2021/01/14 01:00:02;;;;;;;2.95;2.70;;;;;;;;;;5090834;28;20036;-68
2021/01/14 01:02:28;;;;;;;5.72;3.63;;;;;;;;;;5090093;28;20032;-68
2021/01/14 01:04:54;;;;;;;3.83;2.88;;;;;;;;;;5090741;28;20198;-68
2021/01/14 01:07:20;;;;;;;3.30;3.03;;;;;;;;;;5090710;28;20039;-68
2021/01/14 01:09:46;;;;;;;5.70;3.65;;;;;;;;;;5091042;28;20036;-68
2021/01/14 01:12:12;;;;;;;5.43;3.70;;;;;;;;;;5090841;28;20111;-68
2021/01/14 01:14:38;;;;;;;4.53;3.00;;;;;;;;;;5090286;28;20450;-68
2021/01/14 01:17:04;;;;;;;6.15;3.67;;;;;;;;;;5090976;28;20032;-68
2021/01/14 01:19:31;;;;;;;5.13;4.10;;;;;;;;;;5090557;28;20043;-68
2021/01/14 01:21:57;;;;;;;5.78;4.80;;;;;;;;;;5090913;28;20487;-68
2021/01/14 01:24:23;;;;;;;6.40;3.85;;;;;;;;;;5090229;28;20104;-67
2021/01/14 01:26:52;;;;;;;6.57;3.33;;;;;;;;;;5090864;28;20116;-68
2021/01/14 01:29:19;;;;;;;9.27;6.97;;;;;;;;;;5090660;28;20043;-68
2021/01/14 01:31:45;;;;;;;6.03;4.50;;;;;;;;;;5090580;28;20558;-68
2021/01/14 01:34:11;;;;;;;7.82;5.53;;;;;;;;;;5093313;28;20055;-68
2021/01/14 01:36:37;;;;;;;7.50;5.65;;;;;;;;;;5093997;28;20032;-68
2021/01/14 01:39:04;;;;;;;7.10;5.18;;;;;;;;;;5095219;28;20032;-68
2021/01/14 01:41:30;;;;;;;8.25;6.10;;;;;;;;;;5093940;28;20044;-68
2021/01/14 01:43:56;;;;;;;7.03;5.10;;;;;;;;;;5094743;28;20081;-68
2021/01/14 01:46:27;;;;;;;8.05;6.15;;;;;;;;;;5094102;28;20020;-68
2021/01/14 01:48:55;;;;;;;7.07;6.22;;;;;;;;;;5094808;28;20024;-68
2021/01/14 01:51:21;;;;;;;8.27;6.70;;;;;;;;;;5094217;28;20042;-68
2021/01/14 01:53:47;;;;;;;9.10;6.50;;;;;;;;;;5094809;28;20104;-68
2021/01/14 01:56:14;;;;;;;5.22;4.70;;;;;;;;;;5094330;28;20498;-68
2021/01/14 01:58:41;;;;;;;7.28;5.38;;;;;;;;;;5094091;28;20059;-68
2021/01/14 02:01:08;;;;;;;7.20;5.55;;;;;;;;;;5094576;28;20544;-68
2021/01/14 02:03:35;;;;;;;8.70;5.80;;;;;;;;;;5093760;28;20490;-68
2021/01/14 02:06:01;;;;;;;8.85;5.65;;;;;;;;;;5093184;28;20059;-68
2021/01/14 02:08:46;;;;;;;8.10;5.20;;;;;;;;;;5093878;28;20020;-68
2021/01/14 02:11:15;;;;;;;6.05;4.72;;;;;;;;;;5093788;28;20028;-68
2021/01/14 02:13:46;;;;;;;6.45;4.47;;;;;;;;;;5093565;28;20074;-68
2021/01/14 02:16:13;;;;;;;6.80;5.03;;;;;;;;;;5093993;28;20554;-68
2021/01/14 02:18:39;;;;;;;7.80;5.25;;;;;;;;;;5093591;28;20028;-67
2021/01/14 02:21:07;;;;;;;8.27;5.85;;;;;;;;;;5094074;28;20123;-68
2021/01/14 02:23:56;;;;;;;8.40;5.32;;;;;;;;;;5092891;28;20122;-68
2021/01/14 02:26:25;;;;;;;9.02;6.45;;;;;;;;;;5093067;28;20077;-67
2021/01/14 02:28:52;;;;;;;6.25;4.57;;;;;;;;;;5094234;28;20539;-68
2021/01/14 02:31:19;;;;;;;6.07;4.47;;;;;;;;;;5093618;28;20039;-67
2021/01/14 02:33:47;;;;;;;6.43;4.55;;;;;;;;;;5093306;28;20073;-68
2021/01/14 02:36:13;;;;;;;5.72;4.65;;;;;;;;;;5093320;28;20380;-67
2021/01/14 02:38:40;;;;;;;6.47;5.20;;;;;;;;;;5093253;28;20039;-68
2021/01/14 02:41:07;;;;;;;6.63;5.70;;;;;;;;;;5093549;28;20055;-67
2021/01/14 02:43:34;;;;;;;6.03;4.53;;;;;;;;;;5091687;28;20116;-67
2021/01/14 02:46:00;;;;;;;6.53;5.18;;;;;;;;;;5092803;28;20043;-67
2021/01/14 02:48:49;;;;;;;6.60;5.32;;;;;;;;;;5093268;28;20031;-67
2021/01/14 02:51:27;;;;;;;7.13;5.40;;;;;;;;;;5083044;28;20040;-67
2021/01/14 02:53:54;;;;;;;5.40;4.43;;;;;;;;;;5093228;28;20032;-67
2021/01/14 02:56:21;;;;;;;7.65;4.68;;;;;;;;;;5092821;28;20024;-67
2021/01/14 02:58:47;;;;;;;9.60;5.95;;;;;;;;;;5093552;28;20032;-67
2021/01/14 03:01:13;;;;;;;7.40;4.93;;;;;;;;;;5093884;28;20024;-67
2021/01/14 03:03:39;;;;;;;6.82;4.80;;;;;;;;;;5092589;28;20696;-67
2021/01/14 03:06:05;;;;;;;6.97;4.53;;;;;;;;;;5092798;28;20103;-68
2021/01/14 03:08:31;;;;;;;5.13;4.03;;;;;;;;;;5092569;28;20024;-67
2021/01/14 03:10:57;;;;;;;5.72;4.43;;;;;;;;;;5092745;28;20062;-67
2021/01/14 03:13:23;;;;;;;5.40;4.53;;;;;;;;;;5092532;28;20036;-67
2021/01/14 03:15:50;;;;;;;4.93;4.43;;;;;;;;;;5092098;28;20032;-67
2021/01/14 03:18:16;;;;;;;6.30;4.90;;;;;;;;;;5093286;28;20107;-66
2021/01/14 03:20:42;;;;;;;7.30;4.55;;;;;;;;;;5091768;28;20031;-67
2021/01/14 03:23:09;;;;;;;7.10;4.32;;;;;;;;;;5092851;28;20067;-67
2021/01/14 03:25:35;;;;;;;8.18;4.72;;;;;;;;;;5091564;28;20043;-68
2021/01/14 03:28:02;;;;;;;5.72;3.88;;;;;;;;;;5092727;28;20119;-68
2021/01/14 03:30:28;;;;;;;6.18;4.28;;;;;;;;;;5091663;28;20035;-67
2021/01/14 03:32:56;;;;;;;6.32;5.15;;;;;;;;;;5092762;28;20020;-67
2021/01/14 03:35:22;;;;;;;5.70;4.18;;;;;;;;;;5091643;28;20028;-67
2021/01/14 03:37:48;;;;;;;6.95;4.05;;;;;;;;;;5092612;28;20032;-68
2021/01/14 03:40:15;;;;;;;7.57;4.25;;;;;;;;;;5091869;28;20584;-67
2021/01/14 03:42:41;;;;;;;4.65;3.35;;;;;;;;;;5091888;28;20134;-68
2021/01/14 03:45:07;;;;;;;6.30;4.30;;;;;;;;;;5092543;28;20032;-67
2021/01/14 03:47:33;;;;;;;3.95;2.97;;;;;;;;;;5091307;28;20028;-67
2021/01/14 03:50:00;;;;;;;5.82;4.40;;;;;;;;;;5092222;28;20111;-68
2021/01/14 03:52:26;;;;;;;6.05;3.83;;;;;;;;;;5091395;28;20019;-67
2021/01/14 03:54:53;;;;;;;4.22;3.83;;;;;;;;;;5091943;28;20047;-67
2021/01/14 03:57:19;;;;;;;4.45;3.35;;;;;;;;;;5090557;28;20085;-66
2021/01/14 03:59:45;;;;;;;5.28;3.50;;;;;;;;;;5091645;28;20077;-67
2021/01/14 04:02:11;;;;;;;5.93;4.50;;;;;;;;;;5092131;28;20368;-67
2021/01/14 04:04:38;;;;;;;4.70;2.72;;;;;;;;;;5091045;28;20032;-67
2021/01/14 04:07:12;;;;;;;5.18;4.68;;;;;;;;;;5091685;28;20466;-67
2021/01/14 04:09:38;;;;;;;3.95;3.13;;;;;;;;;;5091246;28;20020;-67
2021/01/14 04:12:05;;;;;;;4.43;2.88;;;;;;;;;;5091760;28;20104;-68
2021/01/14 04:14:31;;;;;;;4.15;3.55;;;;;;;;;;5091286;28;20036;-67
2021/01/14 04:16:57;;;;;;;3.33;2.88;;;;;;;;;;5091752;28;20463;-67
2021/01/14 04:19:24;;;;;;;2.60;2.40;;;;;;;;;;5091335;28;20403;-67
2021/01/14 04:21:50;;;;;;;4.40;4.00;;;;;;;;;;5091172;28;20542;-67
2021/01/14 04:24:16;;;;;;;4.35;3.58;;;;;;;;;;5091474;28;20070;-66
2021/01/14 04:26:42;;;;;;;4.45;2.90;;;;;;;;;;5091202;28;20016;-67
2021/01/14 04:29:08;;;;;;;4.40;2.92;;;;;;;;;;5090794;28;20024;-67
2021/01/14 04:31:35;;;;;;;3.80;2.70;;;;;;;;;;5091177;28;20024;-67
2021/01/14 04:34:02;;;;;;;3.45;3.15;;;;;;;;;;5091390;28;20032;-67
2021/01/14 04:36:28;;;;;;;3.67;2.90;;;;;;;;;;5090131;28;20500;-67
2021/01/14 04:38:54;;;;;;;3.10;2.45;;;;;;;;;;5091294;28;20403;-67
2021/01/14 04:41:20;;;;;;;3.25;2.53;;;;;;;;;;5089920;28;20467;-67
2021/01/14 04:43:47;;;;;;;3.45;2.65;;;;;;;;;;5090763;28;20039;-67
2021/01/14 04:46:14;;;;;;;5.32;3.40;;;;;;;;;;5091543;28;20062;-67
2021/01/14 04:48:49;;;;;;;3.67;2.85;;;;;;;;;;5090568;28;20056;-67
2021/01/14 04:51:16;;;;;;;2.92;2.60;;;;;;;;;;5090638;28;20024;-66
2021/01/14 04:53:46;;;;;;;2.47;1.95;;;;;;;;;;5090352;28;20100;-67
2021/01/14 04:56:13;;;;;;;2.88;2.33;;;;;;;;;;5090983;28;20385;-68
2021/01/14 04:58:40;;;;;;;2.92;2.20;;;;;;;;;;5090892;28;20028;-67
2021/01/14 05:01:11;;;;;;;4.68;2.42;;;;;;;;;;5082678;28;20043;-67
2021/01/14 05:03:42;;;;;;;3.30;2.00;;;;;;;;;;5090120;28;20040;-67
2021/01/14 05:06:10;;;;;;;3.35;2.50;;;;;;;;;;5082798;28;20028;-67
2021/01/14 05:08:37;;;;;;;2.63;2.22;;;;;;;;;;5090366;28;20040;-67
2021/01/14 05:11:03;;;;;;;2.60;1.98;;;;;;;;;;5090542;28;20024;-67
2021/01/14 05:13:30;;;;;;;2.22;2.03;;;;;;;;;;5089469;28;20111;-67
2021/01/14 05:15:57;;;;;;;2.90;2.38;;;;;;;;;;5090875;28;20020;-67
2021/01/14 05:18:23;;;;;;;2.25;1.88;;;;;;;;;;5090029;28;20406;-67
2021/01/14 05:20:49;;;;;;;1.98;1.75;;;;;;;;;;5091120;28;20039;-67
2021/01/14 05:23:19;;;;;;;3.28;1.88;;;;;;;;;;5090280;28;20169;-67
2021/01/14 05:25:52;;;;;;;2.55;2.35;;;;;;;;;;5090514;28;20020;-68
2021/01/14 05:28:18;;;;;;;2.55;2.05;;;;;;;;;;5090512;28;20028;-67
2021/01/14 05:30:44;;;;;;;2.08;1.80;;;;;;;;;;5090992;28;20060;-67
2021/01/14 05:33:15;;;;;;;3.70;1.42;;;;;;;;;;5089942;28;20395;-67
2021/01/14 05:35:47;;;;;;;2.65;1.52;;;;;;;;;;5089928;28;20036;-67
2021/01/14 05:38:33;;;;;;;2.00;1.30;;;;;;;;;;5089903;28;20107;-67
2021/01/14 05:41:18;;;;;;;2.65;1.80;;;;;;;;;;5090195;28;20558;-67
2021/01/14 05:43:54;;;;;;;1.35;1.25;;;;;;;;;;5089757;28;20043;-68
2021/01/14 05:46:22;;;;;;;1.48;1.38;;;;;;;;;;5089664;28;20508;-67
2021/01/14 05:48:48;;;;;;;2.08;1.35;;;;;;;;;;5090863;28;20028;-67
2021/01/14 05:51:15;;;;;;;1.45;1.35;;;;;;;;;;5090742;28;20035;-67
2021/01/14 05:53:54;;;;;;;2.17;1.63;;;;;;;;;;5089694;28;20028;-67
2021/01/14 05:56:46;;;;;;;2.42;1.40;;;;;;;;;;5088874;28;20038;-67
2021/01/14 05:59:13;;;;;;;1.08;0.85;;;;;;;;;;5086868;28;20119;-67
2021/01/14 06:01:51;;;;;;;0.93;0.80;;;;;;;;;;5089976;28;20486;-67
2021/01/14 06:04:22;;;;;;;1.40;1.23;;;;;;;;;;5089939;28;20028;-67
2021/01/14 06:06:52;;;;;;;3.20;1.50;;;;;;;;;;5090211;28;20048;-67
2021/01/14 06:09:19;;;;;;;1.20;1.10;;;;;;;;;;5090152;28;20039;-67
2021/01/14 06:11:46;;;;;;;1.60;1.25;;;;;;;;;;5090095;28;20467;-67
2021/01/14 06:14:31;;;;;;;2.53;1.10;;;;;;;;;;5090301;28;20028;-67
2021/01/14 06:17:04;;;;;;;1.10;1.10;;;;;;;;;;5089870;28;20067;-67
2021/01/14 06:19:30;;;;;;;1.75;1.17;;;;;;;;;;5091155;28;20027;-67
2021/01/14 06:21:57;;;;;;;1.50;1.33;;;;;;;;;;5094141;28;20028;-67
2021/01/14 06:24:24;;;;;;;2.13;1.73;;;;;;;;;;5092947;28;20028;-67
2021/01/14 06:26:51;;;;;;;2.13;1.92;;;;;;;;;;5093506;28;20482;-67
2021/01/14 06:29:21;;;;;;;1.25;1.15;;;;;;;;;;5093705;28;20024;-67
2021/01/14 06:31:47;;;;;;;1.48;1.38;;;;;;;;;;5093715;28;20020;-67
2021/01/14 06:34:15;;;;;;;1.13;1.02;;;;;;;;;;5093539;28;20024;-67
2021/01/14 06:36:41;;;;;;;1.15;0.82;;;;;;;;;;5093517;28;20039;-67
2021/01/14 06:39:11;;;;;;;0.82;0.80;;;;;;;;;;5093701;28;20479;-68
2021/01/14 06:41:41;;;;;;;1.13;0.90;;;;;;;;;;5092630;28;20052;-67
2021/01/14 06:44:08;;;;;;;1.08;1.08;;;;;;;;;;5089753;28;20028;-67
2021/01/14 06:46:35;;;;;;;1.10;1.00;;;;;;;;;;5091947;28;20028;-67
2021/01/14 06:49:15;;;;;;;1.48;1.27;;;;;;;;;;5092533;28;20043;-67
2021/01/14 06:51:41;;;;;;;1.73;1.63;;;;;;;;;;5091844;28;20048;-67
2021/01/14 06:54:10;;;;;;;1.55;1.20;;;;;;;;;;5090315;28;20436;-68
2021/01/14 06:56:43;;;;;;;2.05;1.10;;;;;;;;;;5091934;28;20141;-68
2021/01/14 06:59:15;;;;;;;1.50;1.40;;;;;;;;;;5088900;28;20030;-67
2021/01/14 07:01:45;;;;;;;1.45;1.33;;;;;;;;;;5090384;28;20035;-67
2021/01/14 07:04:19;;;;;;;1.75;1.10;;;;;;;;;;5092177;28;20032;-67
2021/01/14 07:06:54;;;;;;;1.58;1.08;;;;;;;;;;5088880;28;20067;-69
2021/01/14 07:09:21;;;;;;;1.05;0.95;;;;;;;;;;5087382;28;20082;-67
2021/01/14 07:11:49;;;;;;;1.63;1.10;;;;;;;;;;5085185;28;20024;-69
2021/01/14 07:14:18;;;;;;;0.70;0.70;;;;;;;;;;5086860;28;20382;-67
2021/01/14 07:16:47;;;;;;;1.25;1.00;;;;;;;;;;5091446;28;20027;-67
2021/01/14 07:19:13;;;;;;;1.83;1.73;;;;;;;;;;5091355;28;20861;-68
2021/01/14 07:21:44;;;;;;;1.02;0.90;;;;;;;;;;5093267;28;20113;-68
2021/01/14 07:24:10;;;;;;;1.13;1.02;;;;;;;;;;5087977;28;20099;-69
2021/01/14 07:26:43;;;;;;;1.30;1.00;;;;;;;;;;5082722;28;20460;-69
2021/01/14 07:29:11;;;;;;;1.60;1.50;;;;;;;;;;5082755;28;20443;-68
2021/01/14 07:31:45;;;;;;;3.10;2.35;;;;;;;;;;5082026;28;20675;-69
2021/01/14 07:34:38;;;;;;;1.23;1.02;;;;;;;;;;5082198;28;20028;-69
2021/01/14 07:37:05;;;;;;;1.98;1.55;;;;;;;;;;5070658;28;20036;-69
2021/01/14 07:39:49;;;;;;;0.82;0.80;;;;;;;;;;5086736;28;20066;-69
2021/01/14 07:42:29;;;;;;;1.42;0.80;;;;;;;;;;5083659;28;20093;-68
2021/01/14 07:45:02;;;;;;;1.15;0.85;;;;;;;;;;5090318;28;20020;-69
2021/01/14 07:47:29;;;;;;;1.70;1.30;;;;;;;;;;5086867;28;20027;-69
2021/01/14 07:49:56;;;;;;;2.28;1.25;;;;;;;;;;5087806;28;20051;-69
2021/01/14 07:52:29;;;;;;;1.80;1.60;;;;;;;;;;5088516;28;20402;-68
2021/01/14 07:55:09;;;;;;;1.92;1.10;;;;;;;;;;5089693;28;20093;-69
2021/01/14 07:57:52;;;;;;;2.53;1.98;;;;;;;;;;5092015;28;20460;-72
2021/01/14 08:00:23;;;;;;;2.45;1.90;;;;;;;;;;5081206;28;20032;-67
2021/01/14 08:03:07;;;;;;;2.20;1.90;;;;;;;;;;5087096;28;20586;-68
2021/01/14 08:05:43;;;;;;;3.75;2.60;;;;;;;;;;5082386;28;20032;-67
2021/01/14 08:08:26;;;;;;;3.30;1.80;;;;;;;;;;5075001;28;20050;-67
2021/01/14 08:11:09;;;;;;;3.88;2.00;;;;;;;;;;5081114;28;20595;-67
2021/01/14 08:13:54;;;;;;;3.83;3.40;;;;;;;;;;5078656;28;20079;-68
2021/01/14 08:16:35;;;;;;;4.35;3.17;;;;;;;;;;5073342;28;20024;-66
2021/01/14 08:19:10;;;;;;;4.22;3.22;;;;;;;;;;5078540;28;20028;-67
2021/01/14 08:21:36;;;;;;;7.28;2.88;;;;;;;;;;5078600;28;20573;-67
2021/01/14 08:24:03;;;;;;;4.00;3.58;;;;;;;;;;5081006;28;20028;-67
2021/01/14 08:26:29;;;;;;;3.78;2.90;;;;;;;;;;5079700;28;20447;-67
2021/01/14 08:29:01;;;;;;;6.22;3.63;;;;;;;;;;5078219;28;20038;-68
2021/01/14 08:31:37;;;;;;;16.90;5.28;;;;;;;;;;5076593;28;20062;-67
2021/01/14 08:34:06;;;;;;;4.25;3.72;;;;;;;;;;5078653;28;20040;-67
2021/01/14 08:36:40;;;;;;;5.35;2.88;;;;;;;;;;5076427;28;20038;-69
2021/01/14 08:39:08;;;;;;;6.30;3.53;;;;;;;;;;5074523;28;20544;-68
2021/01/14 08:41:39;;;;;;;6.07;4.57;;;;;;;;;;5077772;28;20127;-68
2021/01/14 08:44:06;;;;;;;3.13;2.70;;;;;;;;;;5079992;28;20125;-68
2021/01/14 08:46:41;;;;;;;7.32;3.50;;;;;;;;;;5078707;28;20374;-68
2021/01/14 08:49:11;;;;;;;5.25;3.83;;;;;;;;;;5078030;28;20028;-68
2021/01/14 08:51:41;;;;;;;4.05;3.53;;;;;;;;;;5079059;28;20032;-68
2021/01/14 08:54:07;;;;;;;5.07;3.80;;;;;;;;;;5079301;28;20486;-68
2021/01/14 08:56:34;;;;;;;4.32;3.45;;;;;;;;;;5079492;28;20051;-67
2021/01/14 08:59:20;;;;;;;3.72;3.22;;;;;;;;;;5078963;28;20032;-67
2021/01/14 09:01:46;;;;;;;4.68;4.07;;;;;;;;;;5077609;28;20032;-69
2021/01/14 09:04:12;;;;;;;4.13;3.45;;;;;;;;;;5079332;28;20051;-68
2021/01/14 09:06:39;;;;;;;7.63;4.07;;;;;;;;;;5078133;28;20070;-69
2021/01/14 09:09:15;;;;;;;4.55;3.17;;;;;;;;;;5078582;28;20027;-68
2021/01/14 09:11:44;;;;;;;3.55;3.25;;;;;;;;;;5079762;28;20028;-68
2021/01/14 09:14:11;;;;;;;5.65;3.15;;;;;;;;;;5081165;28;20024;-67
2021/01/14 09:16:37;;;;;;;6.28;2.90;;;;;;;;;;5078907;28;20024;-68
2021/01/14 09:19:17;;;;;;;3.38;2.90;;;;;;;;;;5076622;28;20491;-68
2021/01/14 09:21:43;;;;;;;4.53;3.60;;;;;;;;;;5072224;28;20575;-68
2021/01/14 09:24:10;;;;;;;4.50;3.60;;;;;;;;;;5080480;28;21476;-68
2021/01/14 09:26:41;;;;;;;4.63;3.58;;;;;;;;;;5079675;28;20032;-67
2021/01/14 09:29:07;;;;;;;9.45;3.17;;;;;;;;;;5068538;28;20020;-68
2021/01/14 09:31:34;;;;;;;3.83;3.17;;;;;;;;;;5074773;28;20066;-71
2021/01/14 09:34:00;;;;;;;4.32;3.30;;;;;;;;;;5079324;28;20031;-67
2021/01/14 09:36:26;;;;;;;5.13;3.60;;;;;;;;;;5077554;28;20028;-67
2021/01/14 09:38:54;;;;;;;4.55;3.65;;;;;;;;;;5075281;28;20028;-70
2021/01/14 09:41:26;;;;;;;3.58;2.92;;;;;;;;;;5078114;28;20064;-69
2021/01/14 09:44:18;;;;;;;5.10;3.30;;;;;;;;;;5077592;28;20493;-67
2021/01/14 09:46:45;;;;;;;6.85;3.00;;;;;;;;;;5075742;28;20036;-68
2021/01/14 09:49:12;;;;;;;4.70;3.53;;;;;;;;;;5077798;28;20097;-68
2021/01/14 09:51:39;;;;;;;9.68;2.97;;;;;;;;;;5077103;28;20111;-67
2021/01/14 09:54:06;;;;;;;5.30;3.13;;;;;;;;;;5079938;28;20168;-67
2021/01/14 09:56:33;;;;;;;7.18;3.22;;;;;;;;;;5082492;28;20068;-67
2021/01/14 09:59:03;;;;;;;4.13;2.65;;;;;;;;;;5081462;28;20089;-68
2021/01/14 10:01:36;;;;;;;5.00;3.25;;;;;;;;;;5082222;28;20032;-67
2021/01/14 10:04:24;;;;;;;3.63;3.22;;;;;;;;;;5084166;28;20047;-68
2021/01/14 10:06:59;;;;;;;4.38;3.05;;;;;;;;;;5083710;28;20499;-67
2021/01/14 10:09:26;;;;;;;8.07;4.20;;;;;;;;;;5079949;28;20032;-67
2021/01/14 10:11:52;;;;;;;5.18;4.07;;;;;;;;;;5081535;28;20119;-67
2021/01/14 10:14:19;;;;;;;13.73;3.60;;;;;;;;;;5082900;28;20032;-66
2021/01/14 10:16:46;;;;;;;3.47;3.17;;;;;;;;;;5083800;28;20332;-67
2021/01/14 10:19:15;;;;;;;6.35;3.17;;;;;;;;;;5081572;28;20382;-67
2021/01/14 10:21:42;;;;;;;4.13;2.90;;;;;;;;;;5083246;28;20740;-67
2021/01/14 10:24:30;;;;;;;4.32;2.95;;;;;;;;;;5083686;28;20117;-68
2021/01/14 10:27:10;;;;;;;4.68;2.83;;;;;;;;;;5084360;28;20187;-69
2021/01/14 10:29:39;;;;;;;4.55;3.72;;;;;;;;;;5080616;28;20024;-69
2021/01/14 10:32:07;;;;;;;3.53;3.13;;;;;;;;;;5082886;28;20027;-69
2021/01/14 10:34:42;;;;;;;4.72;2.85;;;;;;;;;;5081941;28;20489;-69
2021/01/14 10:37:37;;;;;;;6.57;2.88;;;;;;;;;;5082156;28;20596;-68
2021/01/14 10:40:16;;;;;;;5.93;4.05;;;;;;;;;;5061837;28;20093;-67
2021/01/14 10:42:47;;;;;;;3.85;3.10;;;;;;;;;;5082367;28;20715;-67
2021/01/14 10:45:13;;;;;;;7.03;3.00;;;;;;;;;;5083406;28;20032;-66
2021/01/14 10:47:40;;;;;;;3.72;3.08;;;;;;;;;;5081760;28;20034;-66
2021/01/14 10:50:23;;;;;;;6.32;3.60;;;;;;;;;;5081873;28;20043;-66
2021/01/14 10:52:55;;;;;;;5.28;2.67;;;;;;;;;;5084049;28;20067;-68
2021/01/14 10:55:21;;;;;;;3.28;2.72;;;;;;;;;;5082461;28;20031;-67
2021/01/14 10:57:54;;;;;;;5.10;2.45;;;;;;;;;;5083833;28;20115;-67
2021/01/14 11:00:21;;;;;;;4.20;2.35;;;;;;;;;;5080407;28;20032;-70
2021/01/14 11:02:47;;;;;;;8.18;3.28;;;;;;;;;;5083431;28;20558;-67
2021/01/14 11:05:17;;;;;;;7.13;3.03;;;;;;;;;;5083137;28;20028;-68
2021/01/14 11:07:43;;;;;;;4.43;2.75;;;;;;;;;;5083484;28;20024;-67
2021/01/14 11:10:10;;;;;;;8.45;4.18;;;;;;;;;;5080434;28;20536;-67
2021/01/14 11:12:56;;;;;;;4.03;2.40;;;;;;;;;;5079442;28;20036;-69
2021/01/14 11:15:22;;;;;;;2.25;2.03;;;;;;;;;;5081947;28;20051;-68
2021/01/14 11:17:48;;;;;;;2.47;1.75;;;;;;;;;;5081242;28;20115;-69
2021/01/14 11:20:14;;;;;;;6.25;2.72;;;;;;;;;;5080907;28;20028;-69
2021/01/14 11:22:40;;;;;;;4.75;1.95;;;;;;;;;;5056181;28;20052;-71
2021/01/14 11:25:07;;;;;;;3.65;2.22;;;;;;;;;;5081372;28;20090;-68
2021/01/14 11:27:33;;;;;;;2.28;1.60;;;;;;;;;;5081548;28;20036;-68
2021/01/14 11:29:59;;;;;;;4.75;2.22;;;;;;;;;;5080164;28;20031;-68
2021/01/14 11:32:25;;;;;;;2.40;1.98;;;;;;;;;;5080652;28;20115;-66
2021/01/14 11:34:55;;;;;;;2.95;2.42;;;;;;;;;;5083434;28;20043;-67
2021/01/14 11:37:21;;;;;;;2.50;2.30;;;;;;;;;;5079481;28;20466;-67
2021/01/14 11:39:48;;;;;;;1.98;1.77;;;;;;;;;;5080306;28;20123;-68
2021/01/14 11:42:14;;;;;;;1.73;1.50;;;;;;;;;;5082736;28;20047;-67
2021/01/14 11:44:40;;;;;;;5.65;2.00;;;;;;;;;;5082883;28;20062;-68
2021/01/14 11:47:08;;;;;;;6.68;2.03;;;;;;;;;;5084048;28;20521;-67
2021/01/14 11:49:35;;;;;;;1.80;1.63;;;;;;;;;;5079044;28;20027;-67
2021/01/14 11:52:01;;;;;;;2.20;1.77;;;;;;;;;;5083450;28;20043;-67
2021/01/14 11:54:27;;;;;;;3.42;2.33;;;;;;;;;;5082841;28;20076;-67
2021/01/14 11:56:54;;;;;;;1.42;1.33;;;;;;;;;;5082994;28;21123;-67
2021/01/14 11:59:20;;;;;;;2.33;2.08;;;;;;;;;;5079102;28;20107;-67
2021/01/14 12:01:46;;;;;;;2.85;1.23;;;;;;;;;;5081848;28;20108;-67
2021/01/14 12:04:12;;;;;;;2.72;1.70;;;;;;;;;;5080182;28;20032;-68
2021/01/14 12:06:39;;;;;;;2.10;1.90;;;;;;;;;;5080004;28;20507;-68
2021/01/14 12:09:05;;;;;;;2.90;1.50;;;;;;;;;;5081294;28;20080;-68
2021/01/14 12:11:31;;;;;;;2.10;1.20;;;;;;;;;;5082423;28;20141;-67
2021/01/14 12:13:58;;;;;;;2.00;1.80;;;;;;;;;;5083806;28;20085;-67
2021/01/14 12:16:25;;;;;;;1.27;1.17;;;;;;;;;;5082399;28;20048;-67
2021/01/14 12:18:51;;;;;;;2.10;1.83;;;;;;;;;;5081313;28;20028;-67
2021/01/14 12:21:18;;;;;;;4.20;2.05;;;;;;;;;;5082362;28;20036;-66
2021/01/14 12:23:47;;;;;;;2.25;1.67;;;;;;;;;;5082606;28;21105;-69
2021/01/14 12:26:13;;;;;;;2.35;1.75;;;;;;;;;;5083132;28;20024;-67
2021/01/14 12:28:39;;;;;;;6.90;1.75;;;;;;;;;;5080998;28;20066;-67
2021/01/14 12:31:06;;;;;;;3.92;2.33;;;;;;;;;;5080941;28;20032;-68
2021/01/14 12:33:32;;;;;;;3.10;2.20;;;;;;;;;;5078917;28;20549;-67
2021/01/14 12:35:58;;;;;;;2.58;2.13;;;;;;;;;;5078209;28;20044;-67
2021/01/14 12:38:24;;;;;;;2.22;2.03;;;;;;;;;;5080572;28;20040;-67
2021/01/14 12:40:50;;;;;;;2.15;1.90;;;;;;;;;;5078761;28;20048;-73
2021/01/14 12:43:16;;;;;;;2.92;2.40;;;;;;;;;;5074197;28;20600;-68
2021/01/14 12:45:42;;;;;;;2.20;2.00;;;;;;;;;;5078869;28;20078;-68
2021/01/14 12:48:08;;;;;;;2.00;1.55;;;;;;;;;;5080466;28;20032;-68
2021/01/14 12:50:34;;;;;;;2.60;2.08;;;;;;;;;;5076610;28;20027;-69
2021/01/14 12:53:01;;;;;;;4.80;2.08;;;;;;;;;;5081168;28;20043;-67
2021/01/14 12:55:27;;;;;;;4.47;1.75;;;;;;;;;;5080042;28;20020;-68
2021/01/14 12:57:54;;;;;;;6.10;1.92;;;;;;;;;;5080080;28;20040;-68
2021/01/14 13:00:21;;;;;;;2.63;1.70;;;;;;;;;;5054568;28;20626;-67
2021/01/14 13:02:56;;;;;;;4.70;2.22;;;;;;;;;;5078204;28;20036;-67
2021/01/14 13:05:22;;;;;;;2.03;1.70;;;;;;;;;;5078758;28;20531;-67
2021/01/14 13:07:48;;;;;;;2.00;1.77;;;;;;;;;;5081588;28;20031;-67
2021/01/14 13:10:14;;;;;;;4.63;2.42;;;;;;;;;;5077261;28;20031;-71
2021/01/14 13:12:40;;;;;;;3.15;2.17;;;;;;;;;;5078468;28;20105;-69
2021/01/14 13:15:09;;;;;;;6.32;2.17;;;;;;;;;;5079700;28;20030;-68
2021/01/14 13:17:35;;;;;;;3.13;2.25;;;;;;;;;;5077452;28;20027;-68
2021/01/14 13:20:02;;;;;;;2.90;1.80;;;;;;;;;;5077528;28;20508;-68
2021/01/14 13:22:28;;;;;;;1.92;1.45;;;;;;;;;;5076852;28;20535;-68
2021/01/14 13:24:54;;;;;;;4.00;2.08;;;;;;;;;;5073264;28;20107;-68
2021/01/14 13:27:20;;;;;;;1.38;1.02;;;;;;;;;;5077471;28;20024;-68
2021/01/14 13:29:46;;;;;;;4.53;1.50;;;;;;;;;;5075896;28;20148;-68
2021/01/14 13:32:15;;;;;;;1.58;1.40;;;;;;;;;;5080167;28;20101;-66
2021/01/14 13:34:41;;;;;;;3.17;1.60;;;;;;;;;;5078088;28;20097;-65
2021/01/14 13:37:07;;;;;;;2.42;1.15;;;;;;;;;;5080654;28;20040;-65
2021/01/14 13:39:33;;;;;;;4.68;1.73;;;;;;;;;;5075744;28;20028;-67
2021/01/14 13:41:59;;;;;;;1.75;1.55;;;;;;;;;;5080130;28;20046;-76
2021/01/14 13:44:27;;;;;;;15.73;4.07;;;;;;;;;;5077115;28;20114;-72
2021/01/14 13:46:54;;;;;;;35.00;7.00;;;;;;;;;;5073381;28;20032;-68
2021/01/14 13:49:20;;;;;;;23.35;6.63;;;;;;;;;;5076106;28;20370;-66
2021/01/14 13:51:50;;;;;;;14.27;4.25;;;;;;;;;;5080059;28;20024;-69
2021/01/14 13:54:17;;;;;;;42.22;7.05;;;;;;;;;;5078731;28;20028;-70
2021/01/14 13:56:43;;;;;;;13.57;3.50;;;;;;;;;;5077797;28;20106;-69
2021/01/14 13:59:09;;;;;;;10.20;2.15;;;;;;;;;;5075917;28;20023;-68
2021/01/14 14:01:36;;;;;;;3.60;1.65;;;;;;;;;;5077918;28;20024;-69
2021/01/14 14:04:03;;;;;;;8.13;2.28;;;;;;;;;;5072448;28;21745;-67
2021/01/14 14:06:45;;;;;;;7.00;1.67;;;;;;;;;;5076596;28;20446;-71
2021/01/14 14:09:16;;;;;;;6.07;1.67;;;;;;;;;;5075955;28;20403;-68
2021/01/14 14:11:43;;;;;;;6.15;1.63;;;;;;;;;;5078507;28;20047;-68
2021/01/14 14:14:13;;;;;;;3.28;1.15;;;;;;;;;;5080940;28;20024;-68
2021/01/14 14:16:43;;;;;;;7.80;1.90;;;;;;;;;;5078931;28;20300;-68
2021/01/14 14:19:10;;;;;;;1.92;1.40;;;;;;;;;;5077928;28;20028;-68
2021/01/14 14:21:36;;;;;;;5.10;1.35;;;;;;;;;;5078939;28;20617;-68
2021/01/14 14:24:03;;;;;;;4.20;1.27;;;;;;;;;;5079974;28;20058;-67
2021/01/14 14:26:33;;;;;;;6.43;1.20;;;;;;;;;;5078089;28;20075;-67
2021/01/14 14:29:00;;;;;;;1.85;1.27;;;;;;;;;;5078252;28;20024;-67
2021/01/14 14:31:26;;;;;;;3.45;0.82;;;;;;;;;;5078046;28;20024;-67
2021/01/14 14:33:53;;;;;;;2.03;1.25;;;;;;;;;;5080339;28;20111;-67
2021/01/14 14:36:26;;;;;;;1.50;1.40;;;;;;;;;;5078668;28;20039;-68
2021/01/14 14:38:52;;;;;;;2.55;1.20;;;;;;;;;;5079438;28;20056;-67
2021/01/14 14:41:21;;;;;;;1.70;1.17;;;;;;;;;;5080486;28;20056;-66
2021/01/14 14:43:47;;;;;;;3.55;1.45;;;;;;;;;;5083829;28;20478;-67
2021/01/14 14:46:14;;;;;;;2.30;1.08;;;;;;;;;;5083761;28;20114;-68
2021/01/14 14:48:41;;;;;;;4.00;1.55;;;;;;;;;;5081695;28;20509;-65
2021/01/14 14:51:14;;;;;;;2.28;1.10;;;;;;;;;;5080388;28;20032;-67
2021/01/14 14:53:40;;;;;;;1.65;1.17;;;;;;;;;;5083587;28;20046;-67